Elton, West Virginia
Current Conditions -  °F | °C
As of 7:19 PM on Wednesday 26 Nov 2014 (Local Time) from KBKW Reporting Station
Haze Haze  
Wind Chill: 34°   Ceiling: 200
Heat Index: 34°   Visibility: 3mi
Dew Point: 33°   Wind: 3mph
Humidity: 96%   Direction: 230°SW
Pressure: 29.97"   Gusts: NA
Location:  37.83°N, 80.8°W
Report Text: KBKW 270019Z AUTO 23003KT 3SM BR OVC002 01/01 A2997 RMK AO2 VIS 1 1/4 RWY19 T00110006
Loading
Personal Weather Stations






























Interactive Weather Map New forecast layout! Learn more

10-Day Weather Forecast

Advertisements
Track Severe Weather on mobile